sensor_id;sensor_type;location;lat;lon;timestamp;pressure;altitude;pressure_sealevel;temperature;humidity
69316;BME280;56445;43.552;5.034;2023-05-21T04:31:04;101030.00;;;31.21;27.69
69316;BME280;56445;43.552;5.034;2023-05-21T04:33:34;101037.00;;;31.39;27.29
69316;BME280;56445;43.552;5.034;2023-05-21T04:36:01;101018.75;;;31.30;27.71
69316;BME280;56445;43.552;5.034;2023-05-21T04:38:29;101020.03;;;31.32;27.29
69316;BME280;56445;43.552;5.034;2023-05-21T04:40:56;101033.41;;;31.39;27.43
69316;BME280;56445;43.552;5.034;2023-05-21T04:43:24;101027.72;;;31.35;27.36
69316;BME280;56445;43.552;5.034;2023-05-21T04:45:52;101039.59;;;31.45;27.54
69316;BME280;56445;43.552;5.034;2023-05-21T04:48:23;101034.34;;;31.43;27.57
69316;BME280;56445;43.552;5.034;2023-05-21T04:50:50;101031.56;;;31.43;27.38
69316;BME280;56445;43.552;5.034;2023-05-21T04:53:19;101051.72;;;31.49;27.29
69316;BME280;56445;43.552;5.034;2023-05-21T04:55:46;101031.44;;;31.39;27.28
69316;BME280;56445;43.552;5.034;2023-05-21T04:58:13;101042.88;;;31.47;27.60
69316;BME280;56445;43.552;5.034;2023-05-21T05:00:43;101025.63;;;31.32;27.69
69316;BME280;56445;43.552;5.034;2023-05-21T05:03:16;101040.91;;;31.47;27.88
69316;BME280;56445;43.552;5.034;2023-05-21T05:05:44;101043.22;;;31.45;27.58
69316;BME280;56445;43.552;5.034;2023-05-21T05:08:11;101031.66;;;31.34;27.78
69316;BME280;56445;43.552;5.034;2023-05-21T05:10:41;101037.84;;;31.40;27.47
69316;BME280;56445;43.552;5.034;2023-05-21T05:13:08;101049.38;;;31.51;27.58
69316;BME280;56445;43.552;5.034;2023-05-21T05:15:35;101030.50;;;31.35;27.59
69316;BME280;56445;43.552;5.034;2023-05-21T05:18:03;101052.66;;;31.53;27.56
69316;BME280;56445;43.552;5.034;2023-05-21T05:20:30;101052.31;;;31.54;27.30
69316;BME280;56445;43.552;5.034;2023-05-21T05:22:57;101025.72;;;31.36;27.69
69316;BME280;56445;43.552;5.034;2023-05-21T05:25:25;101037.94;;;31.43;27.59
69316;BME280;56445;43.552;5.034;2023-05-21T05:27:52;101030.63;;;31.39;27.74
69316;BME280;56445;43.552;5.034;2023-05-21T05:30:19;101026.31;;;31.41;27.60
69316;BME280;56445;43.552;5.034;2023-05-21T05:32:47;101047.53;;;31.55;27.59
69316;BME280;56445;43.552;5.034;2023-05-21T05:35:14;101029.09;;;31.41;27.36
69316;BME280;56445;43.552;5.034;2023-05-21T05:37:41;101046.38;;;31.56;27.69
69316;BME280;56445;43.552;5.034;2023-05-21T05:40:08;101022.25;;;31.39;27.70
69316;BME280;56445;43.552;5.034;2023-05-21T05:42:36;101041.50;;;31.53;27.39
69316;BME280;56445;43.552;5.034;2023-05-21T05:45:03;101027.63;;;31.44;27.38
69316;BME280;56445;43.552;5.034;2023-05-21T05:47:30;101024.84;;;31.44;27.79
69316;BME280;56445;43.552;5.034;2023-05-21T05:49:57;101030.06;;;31.46;27.54
69316;BME280;56445;43.552;5.034;2023-05-21T05:52:24;101044.06;;;31.58;27.64
69316;BME280;56445;43.552;5.034;2023-05-21T05:54:51;101018.59;;;31.47;27.82
69316;BME280;56445;43.552;5.034;2023-05-21T05:57:19;101012.19;;;31.47;27.73
69316;BME280;56445;43.552;5.034;2023-05-21T05:59:46;101024.41;;;31.54;27.44
69316;BME280;56445;43.552;5.034;2023-05-21T06:02:13;101026.28;;;31.50;27.35
69316;BME280;56445;43.552;5.034;2023-05-21T06:04:40;101041.38;;;31.61;27.78
69316;BME280;56445;43.552;5.034;2023-05-21T06:07:07;101030.22;;;31.61;27.60
69316;BME280;56445;43.552;5.034;2023-05-21T06:09:34;101019.84;;;31.50;27.35
69316;BME280;56445;43.552;5.034;2023-05-21T06:12:02;101012.66;;;31.49;27.65
69316;BME280;56445;43.552;5.034;2023-05-21T06:14:29;101035.69;;;31.58;27.46
69316;BME280;56445;43.552;5.034;2023-05-21T06:16:56;101029.28;;;31.57;27.49
69316;BME280;56445;43.552;5.034;2023-05-21T06:19:23;101024.75;;;31.53;27.37
69316;BME280;56445;43.552;5.034;2023-05-21T06:21:51;101011.03;;;31.48;27.79
69316;BME280;56445;43.552;5.034;2023-05-21T06:24:18;101041.63;;;31.69;27.82
69316;BME280;56445;43.552;5.034;2023-05-21T06:26:47;101044.88;;;31.71;27.53
69316;BME280;56445;43.552;5.034;2023-05-21T06:29:14;101051.75;;;31.73;27.47
69316;BME280;56445;43.552;5.034;2023-05-21T06:31:43;101049.78;;;31.74;27.59
69316;BME280;56445;43.552;5.034;2023-05-21T06:34:10;101032.19;;;31.61;27.80
69316;BME280;56445;43.552;5.034;2023-05-21T06:36:37;101052.66;;;31.77;27.88
69316;BME280;56445;43.552;5.034;2023-05-21T06:39:04;101057.91;;;31.79;27.88
69316;BME280;56445;43.552;5.034;2023-05-21T06:41:31;101045.34;;;31.73;27.74
69316;BME280;56445;43.552;5.034;2023-05-21T06:43:59;101059.69;;;31.84;27.67
69316;BME280;56445;43.552;5.034;2023-05-21T06:46:26;101040.56;;;31.73;27.52
69316;BME280;56445;43.552;5.034;2023-05-21T06:48:53;101044.66;;;31.76;27.86
69316;BME280;56445;43.552;5.034;2023-05-21T06:51:20;101059.44;;;31.89;27.76
69316;BME280;56445;43.552;5.034;2023-05-21T06:53:48;101069.91;;;31.92;27.62
69316;BME280;56445;43.552;5.034;2023-05-21T06:56:15;101054.09;;;31.84;27.78
69316;BME280;56445;43.552;5.034;2023-05-21T06:58:42;101051.53;;;31.78;27.56
69316;BME280;56445;43.552;5.034;2023-05-21T07:01:09;101078.50;;;31.87;28.08
69316;BME280;56445;43.552;5.034;2023-05-21T07:03:37;101086.66;;;31.92;27.56
69316;BME280;56445;43.552;5.034;2023-05-21T07:06:05;101058.25;;;31.77;27.96
69316;BME280;56445;43.552;5.034;2023-05-21T07:08:32;101085.94;;;31.95;27.69
69316;BME280;56445;43.552;5.034;2023-05-21T07:10:59;101068.03;;;31.84;28.08
69316;BME280;56445;43.552;5.034;2023-05-21T07:13:26;101085.59;;;31.96;27.69
69316;BME280;56445;43.552;5.034;2023-05-21T07:15:53;101078.03;;;31.97;27.65
69316;BME280;56445;43.552;5.034;2023-05-21T07:18:21;101085.53;;;32.05;27.95
69316;BME280;56445;43.552;5.034;2023-05-21T07:20:48;101070.84;;;31.96;28.03
69316;BME280;56445;43.552;5.034;2023-05-21T07:23:15;101064.09;;;31.97;27.85
69316;BME280;56445;43.552;5.034;2023-05-21T07:25:42;101088.53;;;32.12;27.91
69316;BME280;56445;43.552;5.034;2023-05-21T07:28:09;101071.09;;;32.03;27.71
69316;BME280;56445;43.552;5.034;2023-05-21T07:30:36;101085.53;;;32.17;28.05
69316;BME280;56445;43.552;5.034;2023-05-21T07:33:03;101087.97;;;32.19;28.01
69316;BME280;56445;43.552;5.034;2023-05-21T07:35:31;101078.56;;;32.11;27.85
69316;BME280;56445;43.552;5.034;2023-05-21T07:37:58;101090.78;;;32.19;28.01
69316;BME280;56445;43.552;5.034;2023-05-21T07:40:25;101102.97;;;32.27;28.16
69316;BME280;56445;43.552;5.034;2023-05-21T07:42:52;101077.84;;;32.14;28.05
69316;BME280;56445;43.552;5.034;2023-05-21T07:45:19;101090.41;;;32.20;28.13
69316;BME280;56445;43.552;5.034;2023-05-21T07:47:46;101076.81;;;32.19;28.11
69316;BME280;56445;43.552;5.034;2023-05-21T07:50:13;101086.13;;;32.23;28.01
69316;BME280;56445;43.552;5.034;2023-05-21T07:52:41;101096.94;;;32.37;27.81
69316;BME280;56445;43.552;5.034;2023-05-21T07:55:08;101084.59;;;32.26;27.81
69316;BME280;56445;43.552;5.034;2023-05-21T07:57:36;101100.19;;;32.39;28.13
69316;BME280;56445;43.552;5.034;2023-05-21T08:00:03;101106.69;;;32.43;28.21
69316;BME280;56445;43.552;5.034;2023-05-21T08:02:34;101098.53;;;32.38;27.65
69316;BME280;56445;43.552;5.034;2023-05-21T08:05:02;101085.88;;;32.28;27.97
69316;BME280;56445;43.552;5.034;2023-05-21T08:07:29;101080.63;;;32.27;28.04
69316;BME280;56445;43.552;5.034;2023-05-21T08:09:57;101087.16;;;32.31;27.66
69316;BME280;56445;43.552;5.034;2023-05-21T08:12:25;101084.38;;;32.31;27.79
69316;BME280;56445;43.552;5.034;2023-05-21T08:14:53;101088.78;;;32.32;28.15
69316;BME280;56445;43.552;5.034;2023-05-21T08:17:20;101089.97;;;32.31;28.04
69316;BME280;56445;43.552;5.034;2023-05-21T08:19:47;101098.34;;;32.31;27.67
69316;BME280;56445;43.552;5.034;2023-05-21T08:22:14;101096.69;;;32.30;27.95
69316;BME280;56445;43.552;5.034;2023-05-21T08:24:41;101127.50;;;32.46;28.06
69316;BME280;56445;43.552;5.034;2023-05-21T08:27:08;101115.75;;;32.40;27.65
69316;BME280;56445;43.552;5.034;2023-05-21T08:29:36;101122.88;;;32.37;27.85
69316;BME280;56445;43.552;5.034;2023-05-21T08:32:03;101129.16;;;32.47;28.15
69316;BME280;56445;43.552;5.034;2023-05-21T08:34:31;101110.44;;;32.35;27.78
69316;BME280;56445;43.552;5.034;2023-05-21T08:36:58;101129.63;;;32.49;27.67
69316;BME280;56445;43.552;5.034;2023-05-21T08:39:26;101134.81;;;32.50;28.12
69316;BME280;56445;43.552;5.034;2023-05-21T08:42:01;101127.28;;;32.51;27.85
69316;BME280;56445;43.552;5.034;2023-05-21T08:44:32;101132.03;;;32.50;28.06
69316;BME280;56445;43.552;5.034;2023-05-21T08:47:02;101132.03;;;32.50;27.83
69316;BME280;56445;43.552;5.034;2023-05-21T08:49:33;101114.59;;;32.41;28.15
69316;BME280;56445;43.552;5.034;2023-05-21T08:52:02;101112.97;;;32.40;27.81
69316;BME280;56445;43.552;5.034;2023-05-21T08:54:30;101104.13;;;32.38;27.71
69316;BME280;56445;43.552;5.034;2023-05-21T08:56:58;101118.22;;;32.41;28.08
69316;BME280;56445;43.552;5.034;2023-05-21T08:59:27;101110.97;;;32.40;28.22
69316;BME280;56445;43.552;5.034;2023-05-21T09:01:54;101105.06;;;32.42;27.67
69316;BME280;56445;43.552;5.034;2023-05-21T09:04:25;101106.69;;;32.43;28.14
69316;BME280;56445;43.552;5.034;2023-05-21T09:06:59;101120.19;;;32.53;28.23
69316;BME280;56445;43.552;5.034;2023-05-21T09:09:33;101117.38;;;32.53;28.26
69316;BME280;56445;43.552;5.034;2023-05-21T09:12:07;101080.06;;;32.33;27.81
69316;BME280;56445;43.552;5.034;2023-05-21T09:14:37;101086.31;;;32.30;27.84
69316;BME280;56445;43.552;5.034;2023-05-21T09:17:07;101093.66;;;32.35;28.14
69316;BME280;56445;43.552;5.034;2023-05-21T09:19:36;101099.47;;;32.42;27.84
69316;BME280;56445;43.552;5.034;2023-05-21T09:22:06;101119.84;;;32.55;27.91
69316;BME280;56445;43.552;5.034;2023-05-21T09:24:35;101101.91;;;32.44;28.16
69316;BME280;56445;43.552;5.034;2023-05-21T09:27:05;101125.31;;;32.51;28.26
69316;BME280;56445;43.552;5.034;2023-05-21T09:29:33;101114.72;;;32.45;27.71
69316;BME280;56445;43.552;5.034;2023-05-21T09:32:05;101133.44;;;32.56;27.78
69316;BME280;56445;43.552;5.034;2023-05-21T09:34:35;101121.94;;;32.46;28.18
69316;BME280;56445;43.552;5.034;2023-05-21T09:37:02;101121.13;;;32.45;27.66
69316;BME280;56445;43.552;5.034;2023-05-21T09:39:39;101121.25;;;32.49;27.77
69316;BME280;56445;43.552;5.034;2023-05-21T09:42:06;101125.31;;;32.51;27.87
69316;BME280;56445;43.552;5.034;2023-05-21T09:44:34;101141.59;;;32.62;28.33
69316;BME280;56445;43.552;5.034;2023-05-21T09:47:01;101141.59;;;32.62;28.05
69316;BME280;56445;43.552;5.034;2023-05-21T09:49:28;101150.44;;;32.64;28.05
69316;BME280;56445;43.552;5.034;2023-05-21T09:51:57;101132.31;;;32.57;28.02
69316;BME280;56445;43.552;5.034;2023-05-21T09:54:30;101128.69;;;32.57;28.38
69316;BME280;56445;43.552;5.034;2023-05-21T09:56:59;101139.16;;;32.60;28.06
69316;BME280;56445;43.552;5.034;2023-05-21T09:59:37;101161.06;;;32.70;28.03
69316;BME280;56445;43.552;5.034;2023-05-21T10:02:21;101156.38;;;32.62;28.22
69316;BME280;56445;43.552;5.034;2023-05-21T10:04:51;101152.78;;;32.62;28.27
69316;BME280;56445;43.552;5.034;2023-05-21T10:07:21;101173.16;;;32.74;28.37
69316;BME280;56445;43.552;5.034;2023-05-21T10:09:56;101171.63;;;32.77;27.78
69316;BME280;56445;43.552;5.034;2023-05-21T10:12:23;101170.81;;;32.76;27.80
69316;BME280;56445;43.552;5.034;2023-05-21T10:15:00;101174.16;;;32.82;28.35
69316;BME280;56445;43.552;5.034;2023-05-21T10:17:29;101174.28;;;32.86;28.34
69316;BME280;56445;43.552;5.034;2023-05-21T10:19:58;101186.75;;;32.88;28.09
69316;BME280;56445;43.552;5.034;2023-05-21T10:22:26;101158.94;;;32.79;28.33
69316;BME280;56445;43.552;5.034;2023-05-21T10:24:54;101170.44;;;32.90;28.25
69316;BME280;56445;43.552;5.034;2023-05-21T10:27:22;101158.31;;;32.98;27.93
69316;BME280;56445;43.552;5.034;2023-05-21T10:29:52;101154.09;;;33.05;28.29
69316;BME280;56445;43.552;5.034;2023-05-21T10:32:20;101136.88;;;33.03;28.07
69316;BME280;56445;43.552;5.034;2023-05-21T10:34:48;101129.41;;;33.07;28.29
69316;BME280;56445;43.552;5.034;2023-05-21T10:37:20;101132.44;;;33.14;27.88
69316;BME280;56445;43.552;5.034;2023-05-21T10:39:49;101148.00;;;33.27;28.02
69316;BME280;56445;43.552;5.034;2023-05-21T10:45:11;101152.44;;;33.28;27.75
69316;BME280;56445;43.552;5.034;2023-05-21T10:56:31;101146.03;;;33.28;27.84
69316;BME280;56445;43.552;5.034;2023-05-21T11:01:49;101154.38;;;33.40;27.97
69316;BME280;56445;43.552;5.034;2023-05-21T11:04:26;101149.56;;;33.41;28.17
69316;BME280;56445;43.552;5.034;2023-05-21T11:06:54;101132.13;;;33.31;28.35
69316;BME280;56445;43.552;5.034;2023-05-21T11:09:25;101140.72;;;33.38;28.46
69316;BME280;56445;43.552;5.034;2023-05-21T11:11:56;101132.50;;;33.30;28.42
69316;BME280;56445;43.552;5.034;2023-05-21T11:14:29;101140.53;;;33.31;28.37
69316;BME280;56445;43.552;5.034;2023-05-21T11:16:59;101158.78;;;33.41;28.25
69316;BME280;56445;43.552;5.034;2023-05-21T11:22:24;101146.09;;;33.31;27.98
69316;BME280;56445;43.552;5.034;2023-05-21T11:24:52;101148.44;;;33.29;28.44
69316;BME280;56445;43.552;5.034;2023-05-21T11:27:37;101162.03;;;33.43;28.54
69316;BME280;56445;43.552;5.034;2023-05-21T11:30:17;101143.78;;;33.33;28.38
69316;BME280;56445;43.552;5.034;2023-05-21T11:38:16;101126.50;;;33.44;28.53
69316;BME280;56445;43.552;5.034;2023-05-21T11:40:53;101127.88;;;33.50;28.00
69316;BME280;56445;43.552;5.034;2023-05-21T11:43:21;101125.97;;;33.54;28.42
69316;BME280;56445;43.552;5.034;2023-05-21T11:45:51;101149.22;;;33.70;27.92
69316;BME280;56445;43.552;5.034;2023-05-21T11:48:20;101141.19;;;33.69;28.13
69316;BME280;56445;43.552;5.034;2023-05-21T11:50:53;101122.88;;;33.71;27.98
69316;BME280;56445;43.552;5.034;2023-05-21T11:53:20;101126.31;;;33.81;28.08
69316;BME280;56445;43.552;5.034;2023-05-21T11:55:47;101128.16;;;33.89;28.41
69316;BME280;56445;43.552;5.034;2023-05-21T11:58:17;101138.50;;;34.04;28.15
69316;BME280;56445;43.552;5.034;2023-05-21T12:00:45;101124.81;;;33.99;28.24
69316;BME280;56445;43.552;5.034;2023-05-21T12:03:16;101140.53;;;34.20;28.42
69316;BME280;56445;43.552;5.034;2023-05-21T12:05:45;101142.69;;;34.26;28.54
69316;BME280;56445;43.552;5.034;2023-05-21T12:08:13;101129.97;;;34.29;28.39
69316;BME280;56445;43.552;5.034;2023-05-21T12:10:46;101101.75;;;34.37;28.11
69316;BME280;56445;43.552;5.034;2023-05-21T12:13:14;101103.19;;;34.47;28.21
69316;BME280;56445;43.552;5.034;2023-05-21T12:15:41;101101.53;;;34.62;28.21
69316;BME280;56445;43.552;5.034;2023-05-21T12:18:08;101106.50;;;34.69;28.08
69316;BME280;56445;43.552;5.034;2023-05-21T12:20:35;101102.69;;;34.77;28.15
69316;BME280;56445;43.552;5.034;2023-05-21T12:23:02;101114.00;;;35.00;28.09
69316;BME280;56445;43.552;5.034;2023-05-21T12:25:30;101096.84;;;35.05;27.95
69316;BME280;56445;43.552;5.034;2023-05-21T12:27:57;101105.28;;;35.25;28.02
69316;BME280;56445;43.552;5.034;2023-05-21T12:30:27;101084.22;;;35.15;28.02
69316;BME280;56445;43.552;5.034;2023-05-21T12:32:56;101112.47;;;35.22;28.10
69316;BME280;56445;43.552;5.034;2023-05-21T12:35:23;101101.53;;;35.17;28.21
69316;BME280;56445;43.552;5.034;2023-05-21T12:37:51;101091.22;;;35.21;28.24
69316;BME280;56445;43.552;5.034;2023-05-21T12:40:19;101102.34;;;35.37;28.15
69316;BME280;56445;43.552;5.034;2023-05-21T12:42:46;101093.69;;;35.26;28.11
69316;BME280;56445;43.552;5.034;2023-05-21T12:45:13;101092.53;;;35.27;28.17
69316;BME280;56445;43.552;5.034;2023-05-21T12:47:46;101083.25;;;35.23;28.03
69316;BME280;56445;43.552;5.034;2023-05-21T12:50:19;101106.16;;;35.29;28.25
69316;BME280;56445;43.552;5.034;2023-05-21T12:52:46;101102.56;;;35.28;28.46
69316;BME280;56445;43.552;5.034;2023-05-21T12:55:14;101089.84;;;35.15;27.96
69316;BME280;56445;43.552;5.034;2023-05-21T12:57:41;101105.25;;;35.21;28.20
69316;BME280;56445;43.552;5.034;2023-05-21T13:00:09;101092.59;;;35.11;27.80
69316;BME280;56445;43.552;5.034;2023-05-21T13:05:10;101108.66;;;35.14;28.07
69316;BME280;56445;43.552;5.034;2023-05-21T13:07:43;101092.88;;;35.06;27.83
69316;BME280;56445;43.552;5.034;2023-05-21T13:10:14;101085.59;;;35.02;27.88
69316;BME280;56445;43.552;5.034;2023-05-21T13:12:45;101085.88;;;34.96;27.99
69316;BME280;56445;43.552;5.034;2023-05-21T13:15:12;101102.69;;;34.96;28.06
69316;BME280;56445;43.552;5.034;2023-05-21T13:17:39;101083.13;;;34.81;27.91
69316;BME280;56445;43.552;5.034;2023-05-21T13:20:08;101088.66;;;34.77;28.11
69316;BME280;56445;43.552;5.034;2023-05-21T13:22:48;101105.63;;;34.84;28.25
69316;BME280;56445;43.552;5.034;2023-05-21T13:25:31;101089.84;;;34.76;28.15
69316;BME280;56445;43.552;5.034;2023-05-21T13:28:05;101077.13;;;34.63;28.19
69316;BME280;56445;43.552;5.034;2023-05-21T13:30:37;101092.22;;;34.74;28.15
69316;BME280;56445;43.552;5.034;2023-05-21T13:33:08;101100.75;;;34.81;28.13
69316;BME280;56445;43.552;5.034;2023-05-21T13:35:41;101092.25;;;34.78;27.84
69316;BME280;56445;43.552;5.034;2023-05-21T13:38:11;101101.06;;;34.76;28.13
69316;BME280;56445;43.552;5.034;2023-05-21T13:40:42;101087.69;;;34.69;28.36
69316;BME280;56445;43.552;5.034;2023-05-21T13:43:13;101077.56;;;34.65;28.16
69316;BME280;56445;43.552;5.034;2023-05-21T13:45:48;101087.13;;;34.64;28.32
69316;BME280;56445;43.552;5.034;2023-05-21T13:48:15;101085.53;;;34.63;28.27
69316;BME280;56445;43.552;5.034;2023-05-21T13:50:43;101092.94;;;34.71;28.03
69316;BME280;56445;43.552;5.034;2023-05-21T13:53:10;101090.75;;;34.80;28.02
